createdAt,value
2018-06-14T00:01:28.342Z,15.60
2018-06-14T00:11:30.370Z,15.50
2018-06-14T00:21:31.603Z,15.50
2018-06-14T00:31:32.857Z,15.40
2018-06-14T00:41:34.250Z,15.40
2018-06-14T00:51:35.507Z,15.40
2018-06-14T01:01:36.905Z,15.50
2018-06-14T01:11:38.154Z,15.40
2018-06-14T01:21:39.386Z,15.40
2018-06-14T01:31:40.619Z,15.50
2018-06-14T01:41:42.659Z,15.40
2018-06-14T01:51:43.899Z,15.40
2018-06-14T02:01:45.122Z,15.40
2018-06-14T02:11:47.150Z,15.40
2018-06-14T02:21:48.407Z,15.40
2018-06-14T02:31:49.662Z,15.30
2018-06-14T02:41:50.909Z,15.20
2018-06-14T02:51:52.945Z,15.10
2018-06-14T03:01:54.191Z,15.10
2018-06-14T03:11:55.414Z,15.10
2018-06-14T03:21:57.414Z,15.10
2018-06-14T03:31:58.664Z,15.10
2018-06-14T03:41:59.894Z,15.10
2018-06-14T03:52:01.192Z,15.10
2018-06-14T04:02:03.501Z,15.10
2018-06-14T04:12:04.769Z,15.30
2018-06-14T04:22:06.031Z,15.20
2018-06-14T04:32:08.074Z,15.50
2018-06-14T04:42:09.331Z,15.50
2018-06-14T04:52:11.361Z,15.70
2018-06-14T05:02:13.294Z,15.60
2018-06-14T05:12:14.555Z,16.00
2018-06-14T05:22:16.581Z,16.10
2018-06-14T05:32:17.819Z,16.10
2018-06-14T05:42:19.097Z,16.50
2018-06-14T05:52:20.324Z,16.50
2018-06-14T06:02:21.587Z,16.70
2018-06-14T06:12:22.838Z,16.90
2018-06-14T06:22:24.882Z,17.30
2018-06-14T06:32:26.135Z,17.30
2018-06-14T06:42:27.452Z,17.70
2018-06-14T06:52:29.479Z,18.90
2018-06-14T07:02:30.711Z,18.90
2018-06-14T07:12:31.967Z,19.30
2018-06-14T07:22:33.234Z,19.70
2018-06-14T07:32:34.459Z,19.60
2018-06-14T07:42:35.701Z,19.10
2018-06-14T07:52:36.962Z,18.90
2018-06-14T08:02:38.990Z,19.90
2018-06-14T08:12:40.287Z,19.90
2018-06-14T08:22:41.520Z,20.00
2018-06-14T08:32:42.774Z,20.20
2018-06-14T08:42:44.054Z,20.70
2018-06-14T08:52:45.299Z,20.30
2018-06-14T09:02:46.527Z,19.90
2018-06-14T09:12:47.791Z,20.50
2018-06-14T09:22:49.026Z,20.50
2018-06-14T09:32:50.261Z,21.40
2018-06-14T09:42:51.526Z,22.50
2018-06-14T09:52:52.796Z,23.10
2018-06-14T10:02:54.061Z,25.20
2018-06-14T10:12:55.318Z,23.20
2018-06-14T10:22:56.578Z,21.80
2018-06-14T10:32:58.678Z,21.50
2018-06-14T10:43:00.687Z,20.70
2018-06-14T10:53:02.723Z,20.80
2018-06-14T11:03:04.747Z,21.00
2018-06-14T11:13:05.978Z,21.00
2018-06-14T11:23:07.338Z,20.70
2018-06-14T11:33:08.660Z,20.60
2018-06-14T11:43:10.746Z,21.20
2018-06-14T11:53:12.011Z,21.20
2018-06-14T12:03:13.283Z,21.00
2018-06-14T12:13:14.551Z,21.30
2018-06-14T12:23:15.845Z,21.60
2018-06-14T12:33:17.086Z,21.40
2018-06-14T12:43:18.337Z,21.20
2018-06-14T12:53:19.903Z,21.30
2018-06-14T13:03:22.082Z,22.10
2018-06-14T13:13:23.333Z,22.10
2018-06-14T13:33:32.882Z,21.20
2018-06-14T13:53:40.669Z,21.30
2018-06-14T14:23:56.037Z,21.50
2018-06-14T14:33:57.297Z,21.40
2018-06-14T14:54:05.659Z,21.70
2018-06-14T15:04:06.944Z,21.40
2018-06-14T15:14:08.212Z,21.90
2018-06-14T15:24:09.479Z,21.70
2018-06-14T15:34:10.738Z,22.10
2018-06-14T15:54:19.771Z,21.20
2018-06-14T16:04:21.010Z,21.10
2018-06-14T16:14:22.279Z,21.30
2018-06-14T16:24:24.283Z,20.60
2018-06-14T16:34:26.278Z,20.30
2018-06-14T16:44:27.547Z,20.30
2018-06-14T16:54:28.854Z,20.10
2018-06-14T17:04:30.108Z,20.20
2018-06-14T17:14:31.361Z,20.00
2018-06-14T17:24:32.626Z,19.50
2018-06-14T17:34:33.890Z,19.10
2018-06-14T17:54:41.986Z,18.80
2018-06-14T18:04:44.019Z,18.70
2018-06-14T18:14:45.285Z,18.60
2018-06-14T18:45:00.745Z,18.30
2018-06-14T18:55:01.977Z,18.10
2018-06-14T19:05:03.218Z,18.00
2018-06-14T19:15:04.492Z,17.90
2018-06-14T19:25:05.760Z,17.70
2018-06-14T19:35:07.122Z,17.70
2018-06-14T19:45:08.374Z,17.60
2018-06-14T19:55:09.644Z,17.50
2018-06-14T20:05:10.923Z,17.50
2018-06-14T20:15:12.966Z,17.40
2018-06-14T20:55:34.918Z,17.10
2018-06-14T21:05:36.167Z,17.00
2018-06-14T21:15:37.422Z,17.00
2018-06-14T21:25:39.454Z,17.00
2018-06-14T21:35:40.706Z,16.90
2018-06-14T21:45:41.958Z,17.00
2018-06-14T21:55:45.225Z,17.00
2018-06-14T22:05:46.491Z,16.80
2018-06-14T22:15:47.743Z,16.70
2018-06-14T22:25:48.983Z,16.80
2018-06-14T22:35:50.236Z,16.90
2018-06-14T22:45:52.370Z,16.90
2018-06-14T22:55:54.366Z,16.90
2018-06-14T23:05:55.615Z,16.90
2018-06-14T23:15:56.881Z,17.00
2018-06-14T23:25:58.138Z,17.10
2018-06-14T23:35:59.391Z,17.00
2018-06-14T23:56:07.770Z,17.00
